sensor_id;sensor_type;location;lat;lon;timestamp;temperature;humidity
10530;DHT22;5313;48.834;9.228;2023-03-05T00:01:13;3.60;99.90
10530;DHT22;5313;48.834;9.228;2023-03-05T00:03:39;3.60;99.90
10530;DHT22;5313;48.834;9.228;2023-03-05T00:06:05;3.70;99.90
10530;DHT22;5313;48.834;9.228;2023-03-05T00:08:31;3.70;99.90
10530;DHT22;5313;48.834;9.228;2023-03-05T00:10:58;3.80;99.90
10530;DHT22;5313;48.834;9.228;2023-03-05T00:13:24;3.90;99.90
10530;DHT22;5313;48.834;9.228;2023-03-05T00:15:50;3.80;99.90
10530;DHT22;5313;48.834;9.228;2023-03-05T00:18:16;3.80;99.90
10530;DHT22;5313;48.834;9.228;2023-03-05T00:20:42;3.90;99.90
10530;DHT22;5313;48.834;9.228;2023-03-05T00:23:07;3.90;99.90
10530;DHT22;5313;48.834;9.228;2023-03-05T00:25:36;3.80;99.90
10530;DHT22;5313;48.834;9.228;2023-03-05T00:28:02;3.80;99.90
10530;DHT22;5313;48.834;9.228;2023-03-05T00:30:28;3.80;99.90
10530;DHT22;5313;48.834;9.228;2023-03-05T00:32:54;3.80;99.90
10530;DHT22;5313;48.834;9.228;2023-03-05T00:35:19;3.70;99.90
10530;DHT22;5313;48.834;9.228;2023-03-05T00:37:45;3.80;99.90
10530;DHT22;5313;48.834;9.228;2023-03-05T00:40:11;3.80;99.90
10530;DHT22;5313;48.834;9.228;2023-03-05T00:42:37;3.90;99.90
10530;DHT22;5313;48.834;9.228;2023-03-05T00:45:07;3.80;99.90
10530;DHT22;5313;48.834;9.228;2023-03-05T00:47:33;3.90;99.90
10530;DHT22;5313;48.834;9.228;2023-03-05T00:49:58;3.90;99.90
10530;DHT22;5313;48.834;9.228;2023-03-05T00:52:24;3.80;99.90
10530;DHT22;5313;48.834;9.228;2023-03-05T00:54:50;3.90;99.90
10530;DHT22;5313;48.834;9.228;2023-03-05T00:57:15;3.90;99.90
10530;DHT22;5313;48.834;9.228;2023-03-05T00:59:41;3.80;99.90
10530;DHT22;5313;48.834;9.228;2023-03-05T01:02:06;3.80;99.90
10530;DHT22;5313;48.834;9.228;2023-03-05T01:04:32;3.70;99.90
10530;DHT22;5313;48.834;9.228;2023-03-05T01:06:57;3.70;99.90
10530;DHT22;5313;48.834;9.228;2023-03-05T01:09:23;3.70;99.90
10530;DHT22;5313;48.834;9.228;2023-03-05T01:11:52;3.80;99.90
10530;DHT22;5313;48.834;9.228;2023-03-05T01:14:18;3.80;99.90
10530;DHT22;5313;48.834;9.228;2023-03-05T01:16:44;3.70;99.90
10530;DHT22;5313;48.834;9.228;2023-03-05T01:19:09;3.70;99.90
10530;DHT22;5313;48.834;9.228;2023-03-05T01:21:36;3.80;99.90
10530;DHT22;5313;48.834;9.228;2023-03-05T01:24:02;3.80;99.90
10530;DHT22;5313;48.834;9.228;2023-03-05T01:26:27;3.90;99.90
10530;DHT22;5313;48.834;9.228;2023-03-05T01:28:53;3.90;99.90
10530;DHT22;5313;48.834;9.228;2023-03-05T01:31:19;3.90;99.90
10530;DHT22;5313;48.834;9.228;2023-03-05T01:33:44;3.90;99.90
10530;DHT22;5313;48.834;9.228;2023-03-05T01:36:12;3.80;99.90
10530;DHT22;5313;48.834;9.228;2023-03-05T01:38:40;3.80;99.90
10530;DHT22;5313;48.834;9.228;2023-03-05T01:41:06;3.90;99.90
10530;DHT22;5313;48.834;9.228;2023-03-05T01:43:32;3.90;99.90
10530;DHT22;5313;48.834;9.228;2023-03-05T01:49:14;3.80;99.90
10530;DHT22;5313;48.834;9.228;2023-03-05T01:54:36;3.90;99.90
10530;DHT22;5313;48.834;9.228;2023-03-05T01:57:13;3.90;99.90
10530;DHT22;5313;48.834;9.228;2023-03-05T01:59:41;3.80;99.90
10530;DHT22;5313;48.834;9.228;2023-03-05T02:02:08;3.80;99.90
10530;DHT22;5313;48.834;9.228;2023-03-05T02:04:44;3.80;99.90
10530;DHT22;5313;48.834;9.228;2023-03-05T02:07:11;3.70;99.90
10530;DHT22;5313;48.834;9.228;2023-03-05T02:09:38;3.80;99.90
10530;DHT22;5313;48.834;9.228;2023-03-05T02:12:04;3.80;99.90
10530;DHT22;5313;48.834;9.228;2023-03-05T02:14:31;3.70;99.90
10530;DHT22;5313;48.834;9.228;2023-03-05T02:16:57;3.70;99.90
10530;DHT22;5313;48.834;9.228;2023-03-05T02:19:22;3.70;99.90
10530;DHT22;5313;48.834;9.228;2023-03-05T02:21:48;3.60;99.90
10530;DHT22;5313;48.834;9.228;2023-03-05T02:24:18;3.60;99.90
10530;DHT22;5313;48.834;9.228;2023-03-05T02:26:55;3.70;99.90
10530;DHT22;5313;48.834;9.228;2023-03-05T02:29:22;3.70;99.90
10530;DHT22;5313;48.834;9.228;2023-03-05T02:31:48;3.70;99.90
10530;DHT22;5313;48.834;9.228;2023-03-05T02:34:14;3.70;99.90
10530;DHT22;5313;48.834;9.228;2023-03-05T02:36:40;3.60;99.90
10530;DHT22;5313;48.834;9.228;2023-03-05T02:39:05;3.60;99.90
10530;DHT22;5313;48.834;9.228;2023-03-05T02:41:31;3.60;99.90
10530;DHT22;5313;48.834;9.228;2023-03-05T02:43:57;3.60;99.90
10530;DHT22;5313;48.834;9.228;2023-03-05T02:46:22;3.70;99.90
10530;DHT22;5313;48.834;9.228;2023-03-05T02:48:48;3.80;99.90
10530;DHT22;5313;48.834;9.228;2023-03-05T02:51:14;3.70;99.90
10530;DHT22;5313;48.834;9.228;2023-03-05T02:53:40;3.70;99.90
10530;DHT22;5313;48.834;9.228;2023-03-05T02:56:06;3.70;99.90
10530;DHT22;5313;48.834;9.228;2023-03-05T02:58:31;3.80;99.90
10530;DHT22;5313;48.834;9.228;2023-03-05T03:00:57;3.80;99.90
10530;DHT22;5313;48.834;9.228;2023-03-05T03:03:22;3.70;99.90
10530;DHT22;5313;48.834;9.228;2023-03-05T03:05:48;3.80;99.90
10530;DHT22;5313;48.834;9.228;2023-03-05T03:08:13;3.80;99.90
10530;DHT22;5313;48.834;9.228;2023-03-05T03:10:40;3.80;99.90
10530;DHT22;5313;48.834;9.228;2023-03-05T03:13:05;3.90;99.90
10530;DHT22;5313;48.834;9.228;2023-03-05T03:15:31;3.90;99.90
10530;DHT22;5313;48.834;9.228;2023-03-05T03:17:57;3.80;99.90
10530;DHT22;5313;48.834;9.228;2023-03-05T03:20:24;3.80;99.90
10530;DHT22;5313;48.834;9.228;2023-03-05T03:22:49;3.90;99.90
10530;DHT22;5313;48.834;9.228;2023-03-05T03:25:18;3.90;99.90
10530;DHT22;5313;48.834;9.228;2023-03-05T03:27:44;3.90;99.90
10530;DHT22;5313;48.834;9.228;2023-03-05T03:30:11;3.80;99.90
10530;DHT22;5313;48.834;9.228;2023-03-05T03:32:37;3.70;99.90
10530;DHT22;5313;48.834;9.228;2023-03-05T03:35:03;3.70;99.90
10530;DHT22;5313;48.834;9.228;2023-03-05T03:37:29;3.70;99.90
10530;DHT22;5313;48.834;9.228;2023-03-05T03:39:54;3.70;99.90
10530;DHT22;5313;48.834;9.228;2023-03-05T03:42:20;3.70;99.90
10530;DHT22;5313;48.834;9.228;2023-03-05T03:44:47;3.80;99.90
10530;DHT22;5313;48.834;9.228;2023-03-05T03:47:13;3.80;99.90
10530;DHT22;5313;48.834;9.228;2023-03-05T03:49:38;3.80;99.90
10530;DHT22;5313;48.834;9.228;2023-03-05T03:52:04;3.70;99.90
10530;DHT22;5313;48.834;9.228;2023-03-05T03:54:30;3.80;99.90
10530;DHT22;5313;48.834;9.228;2023-03-05T03:56:55;3.80;99.90
10530;DHT22;5313;48.834;9.228;2023-03-05T03:59:21;3.70;99.90
10530;DHT22;5313;48.834;9.228;2023-03-05T04:01:47;3.70;99.90
10530;DHT22;5313;48.834;9.228;2023-03-05T04:04:12;3.70;99.90
10530;DHT22;5313;48.834;9.228;2023-03-05T04:06:39;3.70;99.90
10530;DHT22;5313;48.834;9.228;2023-03-05T04:09:04;3.70;99.90
10530;DHT22;5313;48.834;9.228;2023-03-05T04:11:30;3.80;99.90
10530;DHT22;5313;48.834;9.228;2023-03-05T04:13:55;3.70;99.90
10530;DHT22;5313;48.834;9.228;2023-03-05T04:16:21;3.80;99.90
10530;DHT22;5313;48.834;9.228;2023-03-05T04:18:47;3.80;99.90
10530;DHT22;5313;48.834;9.228;2023-03-05T04:21:13;3.80;99.90
10530;DHT22;5313;48.834;9.228;2023-03-05T04:23:39;3.80;99.90
10530;DHT22;5313;48.834;9.228;2023-03-05T04:26:05;3.80;99.90
10530;DHT22;5313;48.834;9.228;2023-03-05T04:28:31;3.80;99.90
10530;DHT22;5313;48.834;9.228;2023-03-05T04:30:56;3.80;99.90
10530;DHT22;5313;48.834;9.228;2023-03-05T04:33:22;3.90;99.90
10530;DHT22;5313;48.834;9.228;2023-03-05T04:35:49;3.90;99.90
10530;DHT22;5313;48.834;9.228;2023-03-05T04:38:14;4.00;99.90
10530;DHT22;5313;48.834;9.228;2023-03-05T04:40:40;3.80;99.90
10530;DHT22;5313;48.834;9.228;2023-03-05T04:43:06;3.80;99.90
10530;DHT22;5313;48.834;9.228;2023-03-05T04:45:31;3.90;99.90
10530;DHT22;5313;48.834;9.228;2023-03-05T04:47:57;3.80;99.90
10530;DHT22;5313;48.834;9.228;2023-03-05T04:50:23;3.80;99.90
10530;DHT22;5313;48.834;9.228;2023-03-05T04:52:48;3.80;99.90
10530;DHT22;5313;48.834;9.228;2023-03-05T04:55:15;3.80;99.90
10530;DHT22;5313;48.834;9.228;2023-03-05T04:57:41;3.80;99.90
10530;DHT22;5313;48.834;9.228;2023-03-05T05:00:10;3.90;99.90
10530;DHT22;5313;48.834;9.228;2023-03-05T05:02:49;3.90;99.90
10530;DHT22;5313;48.834;9.228;2023-03-05T05:05:19;3.80;99.90
10530;DHT22;5313;48.834;9.228;2023-03-05T05:07:45;3.80;99.90
10530;DHT22;5313;48.834;9.228;2023-03-05T05:10:12;5.30;99.90
10530;DHT22;5313;48.834;9.228;2023-03-05T05:12:38;3.90;99.90
10530;DHT22;5313;48.834;9.228;2023-03-05T05:15:05;3.90;99.90
10530;DHT22;5313;48.834;9.228;2023-03-05T05:17:31;4.00;99.90
10530;DHT22;5313;48.834;9.228;2023-03-05T05:19:58;4.00;99.90
10530;DHT22;5313;48.834;9.228;2023-03-05T05:22:24;4.00;99.90
10530;DHT22;5313;48.834;9.228;2023-03-05T05:24:49;4.00;99.90
10530;DHT22;5313;48.834;9.228;2023-03-05T05:27:15;3.90;99.90
10530;DHT22;5313;48.834;9.228;2023-03-05T05:29:40;4.00;99.90
10530;DHT22;5313;48.834;9.228;2023-03-05T05:32:06;4.00;99.90
10530;DHT22;5313;48.834;9.228;2023-03-05T05:34:32;4.00;99.90
10530;DHT22;5313;48.834;9.228;2023-03-05T05:36:57;3.90;99.90
10530;DHT22;5313;48.834;9.228;2023-03-05T05:39:23;3.90;99.90
10530;DHT22;5313;48.834;9.228;2023-03-05T05:41:50;3.80;99.90
10530;DHT22;5313;48.834;9.228;2023-03-05T05:44:16;3.80;99.90
10530;DHT22;5313;48.834;9.228;2023-03-05T05:46:41;3.80;99.90
10530;DHT22;5313;48.834;9.228;2023-03-05T05:49:07;3.80;99.90
10530;DHT22;5313;48.834;9.228;2023-03-05T05:51:33;3.80;99.90
10530;DHT22;5313;48.834;9.228;2023-03-05T05:53:58;3.70;99.90
10530;DHT22;5313;48.834;9.228;2023-03-05T05:56:23;3.70;99.90
10530;DHT22;5313;48.834;9.228;2023-03-05T05:58:49;3.80;99.90
10530;DHT22;5313;48.834;9.228;2023-03-05T06:01:29;3.70;99.90
10530;DHT22;5313;48.834;9.228;2023-03-05T06:03:55;3.80;99.90
10530;DHT22;5313;48.834;9.228;2023-03-05T06:06:23;3.80;99.90
10530;DHT22;5313;48.834;9.228;2023-03-05T06:08:49;3.70;99.90
10530;DHT22;5313;48.834;9.228;2023-03-05T06:11:15;3.80;99.90
10530;DHT22;5313;48.834;9.228;2023-03-05T06:13:40;3.70;99.90
10530;DHT22;5313;48.834;9.228;2023-03-05T06:16:10;3.80;99.90
10530;DHT22;5313;48.834;9.228;2023-03-05T06:18:36;3.80;99.90
10530;DHT22;5313;48.834;9.228;2023-03-05T06:21:04;3.70;99.90
10530;DHT22;5313;48.834;9.228;2023-03-05T06:23:31;3.70;99.90
10530;DHT22;5313;48.834;9.228;2023-03-05T06:26:01;3.70;99.90
10530;DHT22;5313;48.834;9.228;2023-03-05T06:28:28;3.70;99.90
10530;DHT22;5313;48.834;9.228;2023-03-05T06:31:05;3.70;99.90
10530;DHT22;5313;48.834;9.228;2023-03-05T06:33:32;3.70;99.90
10530;DHT22;5313;48.834;9.228;2023-03-05T06:35:57;3.80;99.90
10530;DHT22;5313;48.834;9.228;2023-03-05T06:38:23;3.80;99.90
10530;DHT22;5313;48.834;9.228;2023-03-05T06:40:49;3.80;99.90
10530;DHT22;5313;48.834;9.228;2023-03-05T06:43:15;3.70;99.90
10530;DHT22;5313;48.834;9.228;2023-03-05T06:45:41;3.70;99.90
10530;DHT22;5313;48.834;9.228;2023-03-05T06:48:06;3.80;99.90
10530;DHT22;5313;48.834;9.228;2023-03-05T06:50:36;3.70;99.90
10530;DHT22;5313;48.834;9.228;2023-03-05T06:53:02;3.80;99.90
10530;DHT22;5313;48.834;9.228;2023-03-05T06:55:28;3.80;99.90
10530;DHT22;5313;48.834;9.228;2023-03-05T06:57:53;3.70;99.90
10530;DHT22;5313;48.834;9.228;2023-03-05T07:00:19;3.90;99.90
10530;DHT22;5313;48.834;9.228;2023-03-05T07:02:45;3.90;99.90
10530;DHT22;5313;48.834;9.228;2023-03-05T07:05:10;3.90;99.90
10530;DHT22;5313;48.834;9.228;2023-03-05T07:07:36;3.90;99.90
10530;DHT22;5313;48.834;9.228;2023-03-05T07:10:03;3.90;99.90
10530;DHT22;5313;48.834;9.228;2023-03-05T07:12:32;3.90;99.90
10530;DHT22;5313;48.834;9.228;2023-03-05T07:14:58;3.90;99.90
10530;DHT22;5313;48.834;9.228;2023-03-05T07:17:23;4.00;99.90
10530;DHT22;5313;48.834;9.228;2023-03-05T07:19:49;4.00;99.90
10530;DHT22;5313;48.834;9.228;2023-03-05T07:22:14;4.00;99.90
10530;DHT22;5313;48.834;9.228;2023-03-05T07:24:40;4.00;99.90
10530;DHT22;5313;48.834;9.228;2023-03-05T07:27:06;4.00;99.90
10530;DHT22;5313;48.834;9.228;2023-03-05T07:29:31;4.00;99.90
10530;DHT22;5313;48.834;9.228;2023-03-05T07:31:57;4.00;99.90
10530;DHT22;5313;48.834;9.228;2023-03-05T07:34:22;4.00;99.90
10530;DHT22;5313;48.834;9.228;2023-03-05T07:36:52;4.00;99.90
10530;DHT22;5313;48.834;9.228;2023-03-05T07:39:18;4.00;99.90
10530;DHT22;5313;48.834;9.228;2023-03-05T07:41:47;4.00;99.90
10530;DHT22;5313;48.834;9.228;2023-03-05T07:44:15;4.00;99.90
10530;DHT22;5313;48.834;9.228;2023-03-05T07:46:42;4.10;99.90
10530;DHT22;5313;48.834;9.228;2023-03-05T07:49:07;4.20;99.90
10530;DHT22;5313;48.834;9.228;2023-03-05T07:51:33;4.20;99.90
10530;DHT22;5313;48.834;9.228;2023-03-05T07:53:59;4.20;99.90
10530;DHT22;5313;48.834;9.228;2023-03-05T07:56:27;4.20;99.90
10530;DHT22;5313;48.834;9.228;2023-03-05T07:58:59;4.10;99.90
10530;DHT22;5313;48.834;9.228;2023-03-05T08:01:25;4.20;99.90
10530;DHT22;5313;48.834;9.228;2023-03-05T08:03:50;4.20;99.90
10530;DHT22;5313;48.834;9.228;2023-03-05T08:06:16;4.20;99.90
10530;DHT22;5313;48.834;9.228;2023-03-05T08:08:41;4.20;99.90
10530;DHT22;5313;48.834;9.228;2023-03-05T08:11:09;4.30;99.90
10530;DHT22;5313;48.834;9.228;2023-03-05T08:13:35;4.40;99.90
10530;DHT22;5313;48.834;9.228;2023-03-05T08:16:10;4.40;99.90
10530;DHT22;5313;48.834;9.228;2023-03-05T08:18:35;4.50;99.90
10530;DHT22;5313;48.834;9.228;2023-03-05T08:21:01;4.50;99.90
10530;DHT22;5313;48.834;9.228;2023-03-05T08:23:27;4.40;99.90
10530;DHT22;5313;48.834;9.228;2023-03-05T08:25:53;4.50;99.90
10530;DHT22;5313;48.834;9.228;2023-03-05T08:28:19;4.40;99.90
10530;DHT22;5313;48.834;9.228;2023-03-05T08:30:47;4.50;99.90
10530;DHT22;5313;48.834;9.228;2023-03-05T08:33:13;4.50;99.90
10530;DHT22;5313;48.834;9.228;2023-03-05T08:35:39;4.50;99.90
10530;DHT22;5313;48.834;9.228;2023-03-05T08:38:05;4.50;99.90
10530;DHT22;5313;48.834;9.228;2023-03-05T08:40:31;4.50;99.90
10530;DHT22;5313;48.834;9.228;2023-03-05T08:42:58;4.50;99.90
10530;DHT22;5313;48.834;9.228;2023-03-05T08:45:25;4.60;99.90
10530;DHT22;5313;48.834;9.228;2023-03-05T08:47:53;4.60;99.90
10530;DHT22;5313;48.834;9.228;2023-03-05T08:50:20;4.60;99.90
10530;DHT22;5313;48.834;9.228;2023-03-05T08:52:47;4.60;99.90
10530;DHT22;5313;48.834;9.228;2023-03-05T08:55:12;4.50;99.90
10530;DHT22;5313;48.834;9.228;2023-03-05T08:57:38;4.50;99.90
10530;DHT22;5313;48.834;9.228;2023-03-05T09:00:04;4.60;99.90
10530;DHT22;5313;48.834;9.228;2023-03-05T09:02:29;4.60;99.90
10530;DHT22;5313;48.834;9.228;2023-03-05T09:04:55;4.70;99.90
10530;DHT22;5313;48.834;9.228;2023-03-05T09:07:21;4.60;99.90
10530;DHT22;5313;48.834;9.228;2023-03-05T09:09:46;4.70;99.90
10530;DHT22;5313;48.834;9.228;2023-03-05T09:12:12;4.90;99.90
10530;DHT22;5313;48.834;9.228;2023-03-05T09:14:38;5.00;99.90
10530;DHT22;5313;48.834;9.228;2023-03-05T09:17:04;4.90;99.90
10530;DHT22;5313;48.834;9.228;2023-03-05T09:19:30;4.90;99.90
10530;DHT22;5313;48.834;9.228;2023-03-05T09:21:55;5.00;99.90
10530;DHT22;5313;48.834;9.228;2023-03-05T09:24:21;4.90;99.90
10530;DHT22;5313;48.834;9.228;2023-03-05T09:26:47;4.90;99.90
10530;DHT22;5313;48.834;9.228;2023-03-05T09:29:12;5.00;99.90
10530;DHT22;5313;48.834;9.228;2023-03-05T09:31:38;4.80;99.90
10530;DHT22;5313;48.834;9.228;2023-03-05T09:34:04;5.00;99.90
10530;DHT22;5313;48.834;9.228;2023-03-05T09:36:31;5.00;99.90
10530;DHT22;5313;48.834;9.228;2023-03-05T09:38:57;5.10;99.90
10530;DHT22;5313;48.834;9.228;2023-03-05T09:41:35;5.20;99.90
10530;DHT22;5313;48.834;9.228;2023-03-05T09:44:39;5.30;99.90
10530;DHT22;5313;48.834;9.228;2023-03-05T09:49:57;5.20;99.90
10530;DHT22;5313;48.834;9.228;2023-03-05T09:52:51;5.20;99.90
10530;DHT22;5313;48.834;9.228;2023-03-05T09:55:39;5.30;99.90
10530;DHT22;5313;48.834;9.228;2023-03-05T10:01:20;5.40;99.90
10530;DHT22;5313;48.834;9.228;2023-03-05T10:06:29;5.40;99.90
10530;DHT22;5313;48.834;9.228;2023-03-05T10:11:42;5.10;99.90
10530;DHT22;5313;48.834;9.228;2023-03-05T10:14:18;5.00;99.90
10530;DHT22;5313;48.834;9.228;2023-03-05T10:22:21;5.00;99.90
10530;DHT22;5313;48.834;9.228;2023-03-05T10:27:50;5.10;99.90
10530;DHT22;5313;48.834;9.228;2023-03-05T10:39:01;4.90;99.90
10530;DHT22;5313;48.834;9.228;2023-03-05T10:44:45;4.90;99.90
10530;DHT22;5313;48.834;9.228;2023-03-05T10:48:04;4.90;99.90
10530;DHT22;5313;48.834;9.228;2023-03-05T10:50:01;4.80;99.90
10530;DHT22;5313;48.834;9.228;2023-03-05T10:52:38;4.90;99.90
10530;DHT22;5313;48.834;9.228;2023-03-05T10:55:16;4.90;99.90
10530;DHT22;5313;48.834;9.228;2023-03-05T10:57:42;5.00;99.90
10530;DHT22;5313;48.834;9.228;2023-03-05T11:00:19;5.10;99.90
10530;DHT22;5313;48.834;9.228;2023-03-05T11:02:54;5.30;99.90
10530;DHT22;5313;48.834;9.228;2023-03-05T11:05:38;5.40;99.90
10530;DHT22;5313;48.834;9.228;2023-03-05T11:13:31;5.20;99.90
10530;DHT22;5313;48.834;9.228;2023-03-05T11:16:16;5.10;99.90
10530;DHT22;5313;48.834;9.228;2023-03-05T11:18:41;5.20;99.90
10530;DHT22;5313;48.834;9.228;2023-03-05T11:21:12;5.10;99.90
10530;DHT22;5313;48.834;9.228;2023-03-05T11:23:42;5.10;99.90
10530;DHT22;5313;48.834;9.228;2023-03-05T11:28:55;5.00;99.90
10530;DHT22;5313;48.834;9.228;2023-03-05T11:31:26;4.90;99.90
10530;DHT22;5313;48.834;9.228;2023-03-05T11:36:39;4.90;99.90
10530;DHT22;5313;48.834;9.228;2023-03-05T11:44:20;5.10;99.90
10530;DHT22;5313;48.834;9.228;2023-03-05T11:46:50;5.10;99.90
10530;DHT22;5313;48.834;9.228;2023-03-05T11:49:22;5.30;99.90
10530;DHT22;5313;48.834;9.228;2023-03-05T11:51:57;5.30;99.90
10530;DHT22;5313;48.834;9.228;2023-03-05T11:54:32;5.30;99.90
10530;DHT22;5313;48.834;9.228;2023-03-05T11:57:01;5.40;99.90
10530;DHT22;5313;48.834;9.228;2023-03-05T11:59:33;5.40;99.90
10530;DHT22;5313;48.834;9.228;2023-03-05T12:01:59;5.40;99.90
10530;DHT22;5313;48.834;9.228;2023-03-05T12:04:25;5.50;99.90
10530;DHT22;5313;48.834;9.228;2023-03-05T12:06:59;5.40;99.90
10530;DHT22;5313;48.834;9.228;2023-03-05T12:15:24;5.60;99.90
10530;DHT22;5313;48.834;9.228;2023-03-05T12:18:04;5.50;99.90
10530;DHT22;5313;48.834;9.228;2023-03-05T12:23:02;5.30;99.90
10530;DHT22;5313;48.834;9.228;2023-03-05T12:25:34;5.40;99.90
10530;DHT22;5313;48.834;9.228;2023-03-05T12:28:14;5.40;99.90
10530;DHT22;5313;48.834;9.228;2023-03-05T12:33:38;5.30;99.90
10530;DHT22;5313;48.834;9.228;2023-03-05T12:38:42;5.30;99.90
10530;DHT22;5313;48.834;9.228;2023-03-05T12:46:32;5.20;99.90
10530;DHT22;5313;48.834;9.228;2023-03-05T12:51:49;5.30;99.90
10530;DHT22;5313;48.834;9.228;2023-03-05T12:54:34;5.40;99.90
10530;DHT22;5313;48.834;9.228;2023-03-05T12:57:14;5.20;99.90
10530;DHT22;5313;48.834;9.228;2023-03-05T13:02:42;5.40;99.90
10530;DHT22;5313;48.834;9.228;2023-03-05T13:05:28;5.50;99.90
10530;DHT22;5313;48.834;9.228;2023-03-05T13:08:10;5.70;99.90
10530;DHT22;5313;48.834;9.228;2023-03-05T13:10:36;5.80;99.90
10530;DHT22;5313;48.834;9.228;2023-03-05T13:13:01;5.80;99.90
10530;DHT22;5313;48.834;9.228;2023-03-05T13:15:34;5.80;99.90
10530;DHT22;5313;48.834;9.228;2023-03-05T13:18:01;5.70;99.90
10530;DHT22;5313;48.834;9.228;2023-03-05T13:20:32;5.80;99.90
10530;DHT22;5313;48.834;9.228;2023-03-05T13:25:41;5.70;99.90
10530;DHT22;5313;48.834;9.228;2023-03-05T13:28:14;5.70;99.90
10530;DHT22;5313;48.834;9.228;2023-03-05T13:30:51;5.60;99.90
10530;DHT22;5313;48.834;9.228;2023-03-05T13:33:21;5.50;99.90
10530;DHT22;5313;48.834;9.228;2023-03-05T13:35:49;5.40;99.90
10530;DHT22;5313;48.834;9.228;2023-03-05T13:41:00;5.60;99.90
10530;DHT22;5313;48.834;9.228;2023-03-05T13:43:27;5.40;99.90
10530;DHT22;5313;48.834;9.228;2023-03-05T13:45:53;5.40;99.90
10530;DHT22;5313;48.834;9.228;2023-03-05T13:48:20;5.40;99.90
10530;DHT22;5313;48.834;9.228;2023-03-05T13:50:53;5.40;99.90
10530;DHT22;5313;48.834;9.228;2023-03-05T13:53:30;5.30;99.90
10530;DHT22;5313;48.834;9.228;2023-03-05T13:56:00;5.20;99.90
10530;DHT22;5313;48.834;9.228;2023-03-05T14:01:42;5.10;99.90
10530;DHT22;5313;48.834;9.228;2023-03-05T14:07:04;5.30;99.90
10530;DHT22;5313;48.834;9.228;2023-03-05T14:09:52;5.30;99.90
10530;DHT22;5313;48.834;9.228;2023-03-05T14:15:04;5.20;99.90
10530;DHT22;5313;48.834;9.228;2023-03-05T14:17:43;5.20;99.90
10530;DHT22;5313;48.834;9.228;2023-03-05T14:22:40;5.10;99.90
10530;DHT22;5313;48.834;9.228;2023-03-05T14:25:28;5.10;99.90
10530;DHT22;5313;48.834;9.228;2023-03-05T14:27:55;5.10;99.90
10530;DHT22;5313;48.834;9.228;2023-03-05T14:30:22;5.10;99.90
10530;DHT22;5313;48.834;9.228;2023-03-05T14:32:50;5.10;99.90
10530;DHT22;5313;48.834;9.228;2023-03-05T14:35:20;5.10;99.90
10530;DHT22;5313;48.834;9.228;2023-03-05T14:37:48;5.20;99.90
10530;DHT22;5313;48.834;9.228;2023-03-05T14:42:50;5.20;99.90
10530;DHT22;5313;48.834;9.228;2023-03-05T14:45:18;5.10;99.90
10530;DHT22;5313;48.834;9.228;2023-03-05T14:47:44;5.10;99.90
10530;DHT22;5313;48.834;9.228;2023-03-05T14:50:15;5.00;99.90
10530;DHT22;5313;48.834;9.228;2023-03-05T14:52:41;4.90;99.90
10530;DHT22;5313;48.834;9.228;2023-03-05T14:55:17;5.00;99.90
10530;DHT22;5313;48.834;9.228;2023-03-05T14:57:43;5.10;99.90
10530;DHT22;5313;48.834;9.228;2023-03-05T15:00:17;5.10;99.90
10530;DHT22;5313;48.834;9.228;2023-03-05T15:02:43;5.10;99.90
10530;DHT22;5313;48.834;9.228;2023-03-05T15:05:08;4.90;99.90
10530;DHT22;5313;48.834;9.228;2023-03-05T15:07:34;4.90;99.90
10530;DHT22;5313;48.834;9.228;2023-03-05T15:10:00;5.00;99.90
10530;DHT22;5313;48.834;9.228;2023-03-05T15:12:26;5.00;99.90
10530;DHT22;5313;48.834;9.228;2023-03-05T15:14:53;5.00;99.90
10530;DHT22;5313;48.834;9.228;2023-03-05T15:17:33;5.00;99.90
10530;DHT22;5313;48.834;9.228;2023-03-05T15:19:58;5.00;99.90
10530;DHT22;5313;48.834;9.228;2023-03-05T15:22:25;5.00;99.90
10530;DHT22;5313;48.834;9.228;2023-03-05T15:24:50;4.90;99.90
10530;DHT22;5313;48.834;9.228;2023-03-05T15:27:16;5.00;99.90
10530;DHT22;5313;48.834;9.228;2023-03-05T15:29:41;4.90;99.90
10530;DHT22;5313;48.834;9.228;2023-03-05T15:32:07;4.90;99.90
10530;DHT22;5313;48.834;9.228;2023-03-05T15:34:33;4.90;99.90
10530;DHT22;5313;48.834;9.228;2023-03-05T15:37:00;4.90;99.90
10530;DHT22;5313;48.834;9.228;2023-03-05T15:39:25;5.00;99.90
10530;DHT22;5313;48.834;9.228;2023-03-05T15:41:52;4.90;99.90
10530;DHT22;5313;48.834;9.228;2023-03-05T15:44:19;4.90;99.90
10530;DHT22;5313;48.834;9.228;2023-03-05T15:46:44;4.90;99.90
10530;DHT22;5313;48.834;9.228;2023-03-05T15:49:10;4.90;99.90
10530;DHT22;5313;48.834;9.228;2023-03-05T15:51:36;5.00;99.90
10530;DHT22;5313;48.834;9.228;2023-03-05T15:54:01;4.90;99.90
10530;DHT22;5313;48.834;9.228;2023-03-05T15:56:27;4.90;99.90
10530;DHT22;5313;48.834;9.228;2023-03-05T15:58:52;4.80;99.90
10530;DHT22;5313;48.834;9.228;2023-03-05T16:01:18;4.80;99.90
10530;DHT22;5313;48.834;9.228;2023-03-05T16:03:45;4.80;99.90
10530;DHT22;5313;48.834;9.228;2023-03-05T16:06:13;4.80;99.90
10530;DHT22;5313;48.834;9.228;2023-03-05T16:08:40;4.90;99.90
10530;DHT22;5313;48.834;9.228;2023-03-05T16:11:08;4.90;99.90
10530;DHT22;5313;48.834;9.228;2023-03-05T16:13:34;4.80;99.90
10530;DHT22;5313;48.834;9.228;2023-03-05T16:16:02;4.80;99.90
10530;DHT22;5313;48.834;9.228;2023-03-05T16:18:29;4.80;99.90
10530;DHT22;5313;48.834;9.228;2023-03-05T16:20:56;4.80;99.90
10530;DHT22;5313;48.834;9.228;2023-03-05T16:23:21;4.80;99.90
10530;DHT22;5313;48.834;9.228;2023-03-05T16:25:47;4.80;99.90
10530;DHT22;5313;48.834;9.228;2023-03-05T16:28:13;4.90;99.90
10530;DHT22;5313;48.834;9.228;2023-03-05T16:30:38;4.80;99.90
10530;DHT22;5313;48.834;9.228;2023-03-05T16:33:04;4.80;99.90
10530;DHT22;5313;48.834;9.228;2023-03-05T16:35:30;4.80;99.90
10530;DHT22;5313;48.834;9.228;2023-03-05T16:37:56;4.70;99.90
10530;DHT22;5313;48.834;9.228;2023-03-05T16:40:22;4.70;99.90
10530;DHT22;5313;48.834;9.228;2023-03-05T16:42:47;4.70;99.90
10530;DHT22;5313;48.834;9.228;2023-03-05T16:45:13;4.70;99.90
10530;DHT22;5313;48.834;9.228;2023-03-05T16:47:39;4.70;99.90
10530;DHT22;5313;48.834;9.228;2023-03-05T16:50:06;3.80;99.90
10530;DHT22;5313;48.834;9.228;2023-03-05T16:52:32;4.60;99.90
10530;DHT22;5313;48.834;9.228;2023-03-05T16:54:58;4.60;99.90
10530;DHT22;5313;48.834;9.228;2023-03-05T16:57:23;4.60;99.90
10530;DHT22;5313;48.834;9.228;2023-03-05T16:59:50;4.60;99.90
10530;DHT22;5313;48.834;9.228;2023-03-05T17:02:16;4.60;99.90
10530;DHT22;5313;48.834;9.228;2023-03-05T17:04:42;4.60;99.90
10530;DHT22;5313;48.834;9.228;2023-03-05T17:07:07;4.60;99.90
10530;DHT22;5313;48.834;9.228;2023-03-05T17:09:33;4.60;99.90
10530;DHT22;5313;48.834;9.228;2023-03-05T17:11:59;4.60;99.90
10530;DHT22;5313;48.834;9.228;2023-03-05T17:14:25;4.60;99.90
10530;DHT22;5313;48.834;9.228;2023-03-05T17:16:51;4.60;99.90
10530;DHT22;5313;48.834;9.228;2023-03-05T17:19:16;4.60;99.90
10530;DHT22;5313;48.834;9.228;2023-03-05T17:21:42;4.60;99.90
10530;DHT22;5313;48.834;9.228;2023-03-05T17:24:08;4.60;99.90
10530;DHT22;5313;48.834;9.228;2023-03-05T17:26:34;4.60;99.90
10530;DHT22;5313;48.834;9.228;2023-03-05T17:29:05;4.50;99.90
10530;DHT22;5313;48.834;9.228;2023-03-05T17:31:31;4.60;99.90
10530;DHT22;5313;48.834;9.228;2023-03-05T17:33:57;4.60;99.90
10530;DHT22;5313;48.834;9.228;2023-03-05T17:36:23;4.50;99.90
10530;DHT22;5313;48.834;9.228;2023-03-05T17:38:50;4.50;99.90
10530;DHT22;5313;48.834;9.228;2023-03-05T17:41:16;4.50;99.90
10530;DHT22;5313;48.834;9.228;2023-03-05T17:43:43;4.50;99.90